createdAt,value
2023-11-22T00:01:17.039Z,100.00
2023-11-22T00:04:20.000Z,100.00
2023-11-22T00:07:24.585Z,100.00
2023-11-22T00:10:27.485Z,100.00
2023-11-22T00:13:30.381Z,100.00
2023-11-22T00:16:40.031Z,100.00
2023-11-22T00:19:45.250Z,100.00
2023-11-22T00:22:48.426Z,100.00
2023-11-22T00:25:50.877Z,100.00
2023-11-22T00:28:54.985Z,100.00
2023-11-22T00:31:57.442Z,100.00
2023-11-22T00:35:00.370Z,100.00
2023-11-22T00:38:02.916Z,100.00
2023-11-22T00:41:06.481Z,100.00
2023-11-22T00:44:09.085Z,100.00
2023-11-22T00:47:12.937Z,100.00
2023-11-22T00:50:15.457Z,100.00
2023-11-22T00:53:19.656Z,100.00
2023-11-22T00:56:22.082Z,100.00
2023-11-22T00:59:27.874Z,100.00
2023-11-22T01:02:35.687Z,100.00
2023-11-22T01:05:38.845Z,100.00
2023-11-22T01:08:43.808Z,100.00
2023-11-22T01:11:46.838Z,100.00
2023-11-22T01:14:49.319Z,100.00
2023-11-22T01:17:54.186Z,100.00
2023-11-22T01:20:56.573Z,100.00
2023-11-22T01:23:59.838Z,100.00
2023-11-22T01:27:02.273Z,100.00
2023-11-22T01:30:08.775Z,100.00
2023-11-22T01:33:12.509Z,100.00
2023-11-22T01:36:16.497Z,100.00
2023-11-22T01:39:19.784Z,100.00
2023-11-22T01:42:27.717Z,100.00
2023-11-22T01:45:30.915Z,100.00
2023-11-22T01:48:33.796Z,100.00
2023-11-22T01:51:36.340Z,100.00
2023-11-22T01:54:39.677Z,100.00
2023-11-22T01:57:42.104Z,100.00
2023-11-22T02:00:53.023Z,100.00
2023-11-22T02:03:56.652Z,100.00
2023-11-22T02:06:59.367Z,100.00
2023-11-22T02:10:08.766Z,100.00
2023-11-22T02:13:11.512Z,100.00
2023-11-22T02:16:19.132Z,100.00
2023-11-22T02:19:22.154Z,100.00
2023-11-22T02:22:25.111Z,100.00
2023-11-22T02:25:27.809Z,100.00
2023-11-22T02:28:30.216Z,100.00
2023-11-22T02:31:32.949Z,100.00
2023-11-22T02:34:36.408Z,100.00
2023-11-22T02:37:51.292Z,100.00
2023-11-22T02:41:14.782Z,100.00
2023-11-22T02:44:32.454Z,100.00
2023-11-22T02:47:35.634Z,100.00
2023-11-22T02:50:43.239Z,100.00
2023-11-22T02:53:47.170Z,100.00
2023-11-22T02:56:52.446Z,100.00
2023-11-22T02:59:57.520Z,100.00
2023-11-22T03:03:00.498Z,100.00
2023-11-22T03:06:03.121Z,100.00
2023-11-22T03:09:09.598Z,100.00
2023-11-22T03:12:13.984Z,100.00
2023-11-22T03:15:17.138Z,100.00
2023-11-22T03:18:19.563Z,100.00
2023-11-22T03:21:22.197Z,100.00
2023-11-22T03:24:28.363Z,100.00
2023-11-22T03:27:33.092Z,100.00
2023-11-22T03:30:35.661Z,100.00
2023-11-22T03:33:38.456Z,100.00
2023-11-22T03:36:41.831Z,100.00
2023-11-22T03:39:49.838Z,100.00
2023-11-22T03:42:58.484Z,100.00
2023-11-22T03:46:04.157Z,100.00
2023-11-22T03:49:10.689Z,100.00
2023-11-22T03:52:13.607Z,100.00
2023-11-22T03:55:16.029Z,100.00
2023-11-22T03:58:20.320Z,100.00
2023-11-22T04:01:24.488Z,100.00
2023-11-22T04:04:27.502Z,100.00
2023-11-22T04:07:29.976Z,100.00
2023-11-22T04:10:32.733Z,100.00
2023-11-22T04:13:38.225Z,100.00
2023-11-22T04:16:41.744Z,100.00
2023-11-22T04:19:47.678Z,100.00
2023-11-22T04:22:50.802Z,100.00
2023-11-22T04:25:53.169Z,100.00
2023-11-22T04:28:57.596Z,100.00
2023-11-22T04:32:00.043Z,100.00
2023-11-22T04:35:06.468Z,100.00
2023-11-22T04:38:16.641Z,100.00
2023-11-22T04:41:19.742Z,100.00
2023-11-22T04:44:22.227Z,100.00
2023-11-22T04:47:25.031Z,100.00
2023-11-22T04:50:33.411Z,100.00
2023-11-22T04:53:36.927Z,100.00
2023-11-22T04:56:42.239Z,100.00
2023-11-22T04:59:45.025Z,100.00
2023-11-22T05:02:49.455Z,100.00
2023-11-22T05:05:52.161Z,100.00
2023-11-22T05:08:59.544Z,100.00
2023-11-22T05:12:02.244Z,100.00
2023-11-22T05:15:05.207Z,100.00
2023-11-22T05:18:10.286Z,100.00
2023-11-22T05:21:12.994Z,100.00
2023-11-22T05:24:18.766Z,100.00
2023-11-22T05:27:23.571Z,100.00
2023-11-22T05:30:26.212Z,100.00
2023-11-22T05:33:28.746Z,100.00
2023-11-22T05:36:31.440Z,100.00
2023-11-22T05:39:33.824Z,100.00
2023-11-22T05:42:37.031Z,100.00
2023-11-22T05:45:50.049Z,100.00
2023-11-22T05:48:53.487Z,100.00
2023-11-22T05:51:55.985Z,100.00
2023-11-22T05:55:00.656Z,100.00
2023-11-22T05:58:03.092Z,100.00
2023-11-22T06:01:09.491Z,100.00
2023-11-22T06:04:12.663Z,100.00
2023-11-22T06:07:15.265Z,100.00
2023-11-22T06:10:17.988Z,100.00
2023-11-22T06:13:20.683Z,100.00
2023-11-22T06:16:23.616Z,100.00
2023-11-22T06:19:26.411Z,100.00
2023-11-22T06:22:29.352Z,100.00
2023-11-22T06:25:32.265Z,100.00
2023-11-22T06:28:36.273Z,100.00
2023-11-22T06:31:41.801Z,100.00
2023-11-22T06:34:44.833Z,100.00
2023-11-22T06:37:47.305Z,100.00
2023-11-22T06:40:50.054Z,100.00
2023-11-22T06:43:52.606Z,100.00
2023-11-22T06:46:58.374Z,100.00
2023-11-22T06:50:01.464Z,100.00
2023-11-22T06:53:04.898Z,100.00
2023-11-22T06:56:07.683Z,100.00
2023-11-22T06:59:10.798Z,100.00
2023-11-22T07:02:13.454Z,100.00
2023-11-22T07:05:16.663Z,100.00
2023-11-22T07:08:19.946Z,100.00
2023-11-22T07:11:26.164Z,100.00
2023-11-22T07:14:30.283Z,100.00
2023-11-22T07:17:34.769Z,99.89
2023-11-22T07:20:37.392Z,95.50
2023-11-22T07:23:42.961Z,93.49
2023-11-22T07:26:46.241Z,91.16
2023-11-22T07:29:49.241Z,89.28
2023-11-22T07:32:53.395Z,88.28
2023-11-22T07:35:56.405Z,87.23
2023-11-22T07:39:01.544Z,85.98
2023-11-22T07:42:04.683Z,85.02
2023-11-22T07:45:09.006Z,82.87
2023-11-22T07:48:17.461Z,81.31
2023-11-22T07:51:19.888Z,79.16
2023-11-22T07:54:23.874Z,78.29
2023-11-22T07:57:26.873Z,77.43
2023-11-22T08:00:30.979Z,75.23
2023-11-22T08:03:36.088Z,73.78
2023-11-22T08:06:39.814Z,72.37
2023-11-22T08:09:42.938Z,72.10
2023-11-22T08:12:46.593Z,70.84
2023-11-22T08:15:52.741Z,71.36
2023-11-22T08:18:55.297Z,72.76
2023-11-22T08:21:58.521Z,71.38
2023-11-22T08:25:00.930Z,73.55
2023-11-22T08:28:03.857Z,72.16
2023-11-22T08:31:10.892Z,73.37
2023-11-22T08:34:14.640Z,71.29
2023-11-22T08:37:17.357Z,74.49
2023-11-22T08:40:22.081Z,73.62
2023-11-22T08:43:27.097Z,71.85
2023-11-22T08:46:29.965Z,69.92
2023-11-22T08:49:32.399Z,69.96
2023-11-22T08:52:35.893Z,70.21
2023-11-22T08:55:38.503Z,66.34
2023-11-22T08:58:41.361Z,66.29
2023-11-22T09:01:46.745Z,66.51
2023-11-22T09:04:49.806Z,66.52
2023-11-22T09:07:52.464Z,64.16
2023-11-22T09:10:55.745Z,63.06
2023-11-22T09:13:58.423Z,61.78
2023-11-22T09:17:02.569Z,60.66
2023-11-22T09:20:08.138Z,59.44
2023-11-22T09:23:11.598Z,59.36
2023-11-22T09:26:14.278Z,57.59
2023-11-22T09:29:16.973Z,56.71
2023-11-22T09:32:19.673Z,54.74
2023-11-22T09:35:23.129Z,54.87
2023-11-22T09:38:26.104Z,52.29
2023-11-22T09:41:30.055Z,51.66
2023-11-22T09:44:32.720Z,52.88
2023-11-22T09:47:35.894Z,51.72
2023-11-22T09:50:38.381Z,50.87
2023-11-22T09:53:44.002Z,50.99
2023-11-22T09:56:52.043Z,51.85
2023-11-22T09:59:58.284Z,51.31
2023-11-22T10:03:00.924Z,53.01
2023-11-22T10:06:05.888Z,54.65
2023-11-22T10:09:10.221Z,55.24
2023-11-22T10:12:14.238Z,54.75
2023-11-22T10:15:20.208Z,53.38
2023-11-22T10:18:23.615Z,54.47
2023-11-22T10:21:31.797Z,52.43
2023-11-22T10:24:36.010Z,52.79
2023-11-22T10:27:39.158Z,52.05
2023-11-22T10:30:42.448Z,50.30
2023-11-22T10:33:44.989Z,48.53
2023-11-22T10:36:48.637Z,49.51
2023-11-22T10:39:53.955Z,48.33
2023-11-22T10:42:58.738Z,46.65
2023-11-22T10:46:03.140Z,45.65
2023-11-22T10:49:07.198Z,46.87
2023-11-22T10:52:14.401Z,46.91
2023-11-22T10:55:19.933Z,44.83
2023-11-22T10:58:22.671Z,44.50
2023-11-22T11:01:32.839Z,44.16
2023-11-22T11:04:40.621Z,44.89
2023-11-22T11:07:49.979Z,44.47
2023-11-22T11:10:54.037Z,44.02
2023-11-22T11:13:57.778Z,43.13
2023-11-22T11:17:00.431Z,42.64
2023-11-22T11:20:07.235Z,42.36
2023-11-22T11:23:13.672Z,43.48
2023-11-22T11:26:20.042Z,44.77
2023-11-22T11:29:41.960Z,44.43
2023-11-22T11:32:47.782Z,42.86
2023-11-22T11:35:51.317Z,40.48
2023-11-22T11:38:55.833Z,40.08
2023-11-22T11:42:16.239Z,41.07
2023-11-22T11:45:21.577Z,39.03
2023-11-22T11:48:26.328Z,41.02
2023-11-22T11:51:30.202Z,40.68
2023-11-22T11:54:32.963Z,40.42
2023-11-22T11:57:37.363Z,36.73
2023-11-22T12:00:42.616Z,41.03
2023-11-22T12:03:45.733Z,41.05
2023-11-22T12:06:48.277Z,38.21
2023-11-22T12:09:50.969Z,42.49
2023-11-22T12:12:53.476Z,39.83
2023-11-22T12:15:57.095Z,41.37
2023-11-22T12:19:00.045Z,38.43
2023-11-22T12:22:03.325Z,39.25
2023-11-22T12:25:06.432Z,40.52
2023-11-22T12:28:11.634Z,38.11
2023-11-22T12:31:16.261Z,38.43
2023-11-22T12:34:19.369Z,39.17
2023-11-22T12:37:24.318Z,42.01
2023-11-22T12:40:29.405Z,44.13
2023-11-22T12:43:36.965Z,49.47
2023-11-22T12:46:49.039Z,44.51
2023-11-22T12:49:51.406Z,44.33
2023-11-22T12:52:54.101Z,47.03
2023-11-22T12:55:57.267Z,40.56
2023-11-22T12:59:00.501Z,43.28
2023-11-22T13:02:03.850Z,50.16
2023-11-22T13:05:12.147Z,56.11
2023-11-22T13:08:15.384Z,54.46
2023-11-22T13:11:20.394Z,47.28
2023-11-22T13:14:24.639Z,45.75
2023-11-22T13:17:27.565Z,47.11
2023-11-22T13:20:30.094Z,48.90
2023-11-22T13:23:34.223Z,51.58
2023-11-22T13:26:36.673Z,51.80
2023-11-22T13:29:39.278Z,52.36
2023-11-22T13:32:44.146Z,59.55
2023-11-22T13:35:48.754Z,56.44
2023-11-22T13:38:56.581Z,49.83
2023-11-22T13:41:59.416Z,46.29
2023-11-22T13:45:01.838Z,47.94
2023-11-22T13:48:07.696Z,48.77
2023-11-22T13:51:12.218Z,49.19
2023-11-22T13:54:15.579Z,49.61
2023-11-22T13:57:17.965Z,49.66
2023-11-22T14:00:25.822Z,49.11
2023-11-22T14:03:29.354Z,46.52
2023-11-22T14:06:32.119Z,50.36
2023-11-22T14:09:38.064Z,58.82
2023-11-22T14:12:40.594Z,56.65
2023-11-22T14:15:43.309Z,54.96
2023-11-22T14:18:46.281Z,55.38
2023-11-22T14:21:49.002Z,55.91
2023-11-22T14:24:54.643Z,57.63
2023-11-22T14:27:58.427Z,59.17
2023-11-22T14:31:00.834Z,66.07
2023-11-22T14:34:06.608Z,72.17
2023-11-22T14:37:09.279Z,76.08
2023-11-22T14:40:14.981Z,77.88
2023-11-22T14:43:17.749Z,79.87
2023-11-22T14:46:21.150Z,81.59
2023-11-22T14:49:23.603Z,82.57
2023-11-22T14:52:26.235Z,84.51
2023-11-22T14:55:30.534Z,85.34
2023-11-22T14:58:33.264Z,86.84
2023-11-22T15:01:36.182Z,87.76
2023-11-22T15:04:44.274Z,87.52
2023-11-22T15:07:47.402Z,87.53
2023-11-22T15:10:51.386Z,87.98
2023-11-22T15:13:54.387Z,89.28
2023-11-22T15:16:57.227Z,89.24
2023-11-22T15:19:59.806Z,90.50
2023-11-22T15:23:04.473Z,90.99
2023-11-22T15:26:09.696Z,91.48
2023-11-22T15:29:13.340Z,91.67
2023-11-22T15:32:16.446Z,92.84
2023-11-22T15:35:19.412Z,93.40
2023-11-22T15:38:23.570Z,93.48
2023-11-22T15:41:28.283Z,94.04
2023-11-22T15:44:35.074Z,93.75
2023-11-22T15:47:38.772Z,94.50
2023-11-22T15:50:41.546Z,94.57
2023-11-22T15:53:44.769Z,94.68
2023-11-22T15:56:47.386Z,94.79
2023-11-22T15:59:52.969Z,94.61
2023-11-22T16:02:55.480Z,94.84
2023-11-22T16:05:58.302Z,94.98
2023-11-22T16:09:01.192Z,95.73
2023-11-22T16:12:04.101Z,96.04
2023-11-22T16:15:06.916Z,96.77
2023-11-22T16:18:12.627Z,96.90
2023-11-22T16:21:17.462Z,96.94
2023-11-22T16:24:20.383Z,97.46
2023-11-22T16:27:25.684Z,97.42
2023-11-22T16:30:31.443Z,97.43
2023-11-22T16:33:34.821Z,97.60
2023-11-22T16:36:37.625Z,97.49
2023-11-22T16:39:39.988Z,97.67
2023-11-22T16:42:42.757Z,98.19
2023-11-22T16:45:49.205Z,98.12
2023-11-22T16:48:55.463Z,97.81
2023-11-22T16:51:57.931Z,98.40
2023-11-22T16:55:01.273Z,98.78
2023-11-22T16:58:04.469Z,98.49
2023-11-22T17:01:07.405Z,98.72
2023-11-22T17:04:12.877Z,98.48
2023-11-22T17:07:16.037Z,99.65
2023-11-22T17:10:19.166Z,98.80
2023-11-22T17:13:22.199Z,99.46
2023-11-22T17:16:25.403Z,98.84
2023-11-22T17:19:28.216Z,99.18
2023-11-22T17:22:33.257Z,99.57
2023-11-22T17:25:36.082Z,99.30
2023-11-22T17:28:41.404Z,99.46
2023-11-22T17:31:46.548Z,99.45
2023-11-22T17:34:49.003Z,99.38
2023-11-22T17:37:54.122Z,98.43
2023-11-22T17:40:56.545Z,99.03
2023-11-22T17:43:59.417Z,99.59
2023-11-22T17:47:02.109Z,99.80
2023-11-22T17:50:06.436Z,99.60
2023-11-22T17:53:11.719Z,99.55
2023-11-22T17:56:14.407Z,99.10
2023-11-22T17:59:17.329Z,99.88
2023-11-22T18:02:23.661Z,99.70
2023-11-22T18:05:28.925Z,99.64
2023-11-22T18:08:31.297Z,100.00
2023-11-22T18:11:34.048Z,100.00
2023-11-22T18:14:39.810Z,99.88
2023-11-22T18:17:43.039Z,99.59
2023-11-22T18:20:46.437Z,99.79
2023-11-22T18:23:49.447Z,100.00
2023-11-22T18:26:54.097Z,99.88
2023-11-22T18:29:56.850Z,100.00
2023-11-22T18:32:59.321Z,100.00
2023-11-22T18:36:02.706Z,100.00
2023-11-22T18:39:08.365Z,100.00
2023-11-22T18:42:11.284Z,100.00
2023-11-22T18:45:14.006Z,100.00
2023-11-22T18:48:17.768Z,100.00
2023-11-22T18:51:25.950Z,100.00
2023-11-22T18:54:28.718Z,100.00
2023-11-22T18:57:31.132Z,100.00
2023-11-22T19:00:36.476Z,100.00
2023-11-22T19:03:38.888Z,100.00
2023-11-22T19:06:41.788Z,100.00
2023-11-22T19:09:44.198Z,100.00
2023-11-22T19:12:47.459Z,100.00
2023-11-22T19:15:52.272Z,100.00
2023-11-22T19:18:57.887Z,100.00
2023-11-22T19:22:01.004Z,100.00
2023-11-22T19:25:07.601Z,100.00
2023-11-22T19:28:16.479Z,100.00
2023-11-22T19:31:21.308Z,100.00
2023-11-22T19:34:23.875Z,100.00
2023-11-22T19:37:33.167Z,100.00
2023-11-22T19:40:46.903Z,100.00
2023-11-22T19:43:51.747Z,100.00
2023-11-22T19:46:57.007Z,100.00
2023-11-22T19:49:59.920Z,100.00
2023-11-22T19:53:04.920Z,100.00
2023-11-22T19:56:10.519Z,100.00
2023-11-22T19:59:13.095Z,100.00
2023-11-22T20:02:17.893Z,100.00
2023-11-22T20:05:26.540Z,100.00
2023-11-22T20:08:36.369Z,100.00
2023-11-22T20:11:59.258Z,100.00
2023-11-22T20:15:11.320Z,100.00
2023-11-22T20:18:29.105Z,100.00
2023-11-22T20:21:43.906Z,100.00
2023-11-22T20:28:24.437Z,100.00
2023-11-22T20:31:31.227Z,100.00
2023-11-22T20:34:46.599Z,100.00
2023-11-22T20:37:56.730Z,100.00
2023-11-22T20:41:06.106Z,100.00
2023-11-22T20:44:45.532Z,100.00
2023-11-22T20:47:54.729Z,100.00
2023-11-22T20:51:10.080Z,100.00
2023-11-22T20:54:37.987Z,100.00
2023-11-22T20:58:24.362Z,100.00
2023-11-22T21:01:30.141Z,100.00
2023-11-22T21:04:53.156Z,100.00
2023-11-22T21:08:19.535Z,100.00
2023-11-22T21:11:34.818Z,100.00
2023-11-22T21:14:44.891Z,100.00
2023-11-22T21:17:50.849Z,100.00
2023-11-22T21:21:10.340Z,100.00
2023-11-22T21:24:24.095Z,100.00
2023-11-22T21:27:36.974Z,100.00
2023-11-22T21:30:43.682Z,100.00
2023-11-22T21:33:51.933Z,100.00
2023-11-22T21:37:04.565Z,100.00
2023-11-22T21:40:23.781Z,100.00
2023-11-22T21:43:32.917Z,100.00
2023-11-22T21:46:48.203Z,100.00
2023-11-22T21:49:54.375Z,100.00
2023-11-22T21:52:59.212Z,100.00
2023-11-22T21:56:22.647Z,100.00
2023-11-22T21:59:33.631Z,100.00
2023-11-22T22:02:47.291Z,100.00
2023-11-22T22:06:04.544Z,100.00
2023-11-22T22:09:22.298Z,100.00
2023-11-22T22:12:39.599Z,100.00
2023-11-22T22:15:58.687Z,100.00
2023-11-22T22:19:07.961Z,100.00
2023-11-22T22:22:20.638Z,100.00
2023-11-22T22:25:32.473Z,100.00
2023-11-22T22:28:49.385Z,100.00
2023-11-22T22:32:10.317Z,100.00
2023-11-22T22:35:18.200Z,100.00
2023-11-22T22:38:38.500Z,100.00
2023-11-22T22:41:48.076Z,100.00
2023-11-22T22:45:17.821Z,100.00
2023-11-22T22:48:34.357Z,100.00
2023-11-22T22:52:03.414Z,100.00
2023-11-22T22:55:16.652Z,100.00
2023-11-22T22:58:40.545Z,100.00
2023-11-22T23:01:54.400Z,100.00
2023-11-22T23:05:12.725Z,100.00
2023-11-22T23:08:34.180Z,100.00
2023-11-22T23:11:54.467Z,100.00
2023-11-22T23:15:05.993Z,100.00
2023-11-22T23:18:17.630Z,100.00
2023-11-22T23:21:47.341Z,100.00
2023-11-22T23:25:06.190Z,100.00
2023-11-22T23:28:19.099Z,100.00
2023-11-22T23:31:31.986Z,100.00
2023-11-22T23:34:45.025Z,100.00
2023-11-22T23:37:59.954Z,100.00
2023-11-22T23:41:15.269Z,100.00
2023-11-22T23:44:34.272Z,100.00
2023-11-22T23:47:43.718Z,100.00
2023-11-22T23:50:57.484Z,100.00
2023-11-22T23:54:13.345Z,100.00
2023-11-22T23:57:23.653Z,100.00
